createdAt,value
2022-10-29T00:01:10.130Z,23.20
2022-10-29T00:03:38.775Z,22.57
2022-10-29T00:06:08.926Z,23.17
2022-10-29T00:08:39.969Z,22.97
2022-10-29T00:11:10.273Z,21.73
2022-10-29T00:13:38.595Z,20.30
2022-10-29T00:16:08.837Z,19.63
2022-10-29T00:18:37.210Z,18.37
2022-10-29T00:21:07.282Z,17.70
2022-10-29T00:23:36.044Z,19.70
2022-10-29T00:26:06.801Z,18.60
2022-10-29T00:28:35.540Z,17.03
2022-10-29T00:31:05.507Z,17.60
2022-10-29T00:33:34.242Z,18.23
2022-10-29T00:36:04.864Z,18.43
2022-10-29T00:38:34.723Z,17.37
2022-10-29T00:41:03.963Z,18.57
2022-10-29T00:43:36.211Z,18.20
2022-10-29T00:46:08.509Z,17.80
2022-10-29T00:48:40.648Z,17.43
2022-10-29T00:51:11.914Z,18.83
2022-10-29T00:53:43.649Z,19.10
2022-10-29T00:56:12.686Z,18.20
2022-10-29T00:58:42.475Z,19.40
2022-10-29T01:01:10.870Z,18.73
2022-10-29T01:03:39.900Z,19.90
2022-10-29T01:06:09.387Z,19.17
2022-10-29T01:08:37.820Z,20.77
2022-10-29T01:11:14.303Z,19.93
2022-10-29T01:13:51.519Z,21.10
2022-10-29T01:16:30.529Z,20.73
2022-10-29T01:19:10.950Z,22.50
2022-10-29T01:21:42.821Z,21.27
2022-10-29T01:24:37.062Z,21.00
2022-10-29T01:27:36.282Z,21.00
2022-10-29T01:30:19.938Z,21.10
2022-10-29T01:33:01.918Z,21.00
2022-10-29T01:35:39.118Z,19.97
2022-10-29T01:38:20.884Z,19.90
2022-10-29T01:40:56.556Z,19.33
2022-10-29T01:43:33.081Z,20.57
2022-10-29T01:46:08.088Z,19.97
2022-10-29T01:48:43.684Z,20.30
2022-10-29T01:51:19.418Z,18.83
2022-10-29T01:53:48.151Z,20.13
2022-10-29T01:56:16.418Z,18.77
2022-10-29T01:58:47.461Z,17.87
2022-10-29T02:01:36.496Z,19.43
2022-10-29T02:04:23.820Z,18.47
2022-10-29T02:07:00.726Z,19.63
2022-10-29T02:09:34.843Z,19.03
2022-10-29T02:12:09.682Z,19.37
2022-10-29T02:14:42.033Z,19.83
2022-10-29T02:17:10.300Z,18.20
2022-10-29T02:19:40.183Z,18.90
2022-10-29T02:22:08.412Z,19.47
2022-10-29T02:24:36.694Z,19.80
2022-10-29T02:27:05.014Z,19.80
2022-10-29T02:29:33.264Z,19.03
2022-10-29T02:32:01.488Z,19.73
2022-10-29T02:34:29.760Z,18.17
2022-10-29T02:36:59.466Z,18.70
2022-10-29T02:39:27.823Z,18.67
2022-10-29T02:41:56.055Z,17.70
2022-10-29T02:44:24.328Z,18.60
2022-10-29T02:46:52.546Z,18.30
2022-10-29T02:49:21.049Z,17.57
2022-10-29T02:51:50.389Z,18.00
2022-10-29T02:54:20.040Z,19.50
2022-10-29T02:56:48.262Z,19.00
2022-10-29T02:59:23.805Z,19.03
2022-10-29T03:01:52.117Z,19.13
2022-10-29T03:04:20.435Z,19.23
2022-10-29T03:06:48.693Z,19.57
2022-10-29T03:09:16.968Z,18.50
2022-10-29T03:11:46.668Z,18.60
2022-10-29T03:14:15.061Z,17.87
2022-10-29T03:16:43.267Z,18.30
2022-10-29T03:19:11.585Z,19.60
2022-10-29T03:21:39.829Z,18.50
2022-10-29T03:24:08.602Z,18.27
2022-10-29T03:26:36.853Z,20.43
2022-10-29T03:29:06.497Z,18.03
2022-10-29T03:31:34.711Z,18.73
2022-10-29T03:34:03.069Z,18.97
2022-10-29T03:36:31.334Z,18.77
2022-10-29T03:38:59.602Z,18.17
2022-10-29T03:41:27.937Z,17.17
2022-10-29T03:46:30.872Z,17.27
2022-10-29T03:48:59.098Z,18.33
2022-10-29T03:51:27.393Z,17.00
2022-10-29T03:53:55.714Z,18.73
2022-10-29T03:56:23.975Z,19.00
2022-10-29T03:58:52.203Z,17.90
2022-10-29T04:01:20.703Z,17.67
2022-10-29T04:03:50.406Z,17.97
2022-10-29T04:06:18.642Z,15.93
2022-10-29T04:08:46.967Z,15.97
2022-10-29T04:11:15.920Z,16.90
2022-10-29T04:13:44.181Z,16.43
2022-10-29T04:16:12.496Z,16.27
2022-10-29T04:18:40.736Z,15.53
2022-10-29T04:29:35.393Z,15.53
2022-10-29T04:32:03.626Z,15.07
2022-10-29T04:34:31.898Z,15.47
2022-10-29T04:37:01.550Z,14.80
2022-10-29T04:39:29.782Z,15.03
2022-10-29T04:41:58.021Z,15.40
2022-10-29T04:44:26.467Z,15.17
2022-10-29T04:46:54.705Z,15.47
2022-10-29T04:49:23.062Z,15.60
2022-10-29T04:51:51.332Z,16.20
2022-10-29T04:54:20.943Z,15.57
2022-10-29T04:56:49.214Z,15.40
2022-10-29T04:59:17.554Z,15.37
2022-10-29T05:01:45.841Z,15.33
2022-10-29T05:04:14.583Z,15.37
2022-10-29T05:06:42.884Z,14.57
2022-10-29T05:09:11.139Z,14.57
2022-10-29T05:11:40.788Z,15.87
2022-10-29T05:14:09.042Z,13.93
2022-10-29T05:16:37.267Z,15.63
2022-10-29T05:19:06.741Z,15.77
2022-10-29T05:21:35.004Z,15.53
2022-10-29T05:24:03.354Z,15.03
2022-10-29T05:26:32.845Z,15.23
2022-10-29T05:29:02.660Z,14.40
2022-10-29T05:31:30.891Z,14.87
2022-10-29T05:33:59.358Z,15.00
2022-10-29T05:36:27.692Z,15.57
2022-10-29T05:38:55.923Z,16.63
2022-10-29T05:41:24.174Z,14.83
2022-10-29T05:43:52.409Z,15.00
2022-10-29T05:46:22.031Z,15.57
2022-10-29T05:48:50.251Z,13.63
2022-10-29T05:51:18.517Z,14.70
2022-10-29T05:53:46.761Z,16.23
2022-10-29T05:56:15.057Z,16.47
2022-10-29T05:58:43.543Z,15.60
2022-10-29T06:01:12.567Z,16.10
2022-10-29T06:03:42.237Z,16.07
2022-10-29T06:06:10.664Z,17.27
2022-10-29T06:08:38.991Z,19.43
2022-10-29T06:11:07.236Z,18.33
2022-10-29T06:13:35.497Z,18.43
2022-10-29T06:16:03.876Z,19.80
2022-10-29T06:18:32.200Z,19.27
2022-10-29T06:21:02.297Z,20.70
2022-10-29T06:23:30.873Z,18.40
2022-10-29T06:26:01.546Z,18.23
2022-10-29T06:28:34.748Z,17.93
2022-10-29T06:31:03.514Z,18.53
2022-10-29T06:33:31.868Z,18.47
2022-10-29T06:36:02.223Z,17.97
2022-10-29T06:38:30.675Z,18.17
2022-10-29T06:40:58.942Z,18.43
2022-10-29T06:43:27.473Z,17.90
2022-10-29T06:45:55.737Z,18.40
2022-10-29T06:48:24.118Z,20.13
2022-10-29T06:50:52.614Z,18.17
2022-10-29T06:53:22.359Z,22.48
2022-10-29T06:55:50.655Z,20.90
2022-10-29T06:58:20.606Z,20.47
2022-10-29T07:00:49.560Z,20.67
2022-10-29T07:03:19.588Z,23.50
2022-10-29T07:05:48.234Z,21.57
2022-10-29T07:08:16.535Z,20.37
2022-10-29T07:10:46.237Z,19.47
2022-10-29T07:13:14.513Z,18.87
2022-10-29T07:15:42.779Z,20.17
2022-10-29T07:18:12.390Z,18.87
2022-10-29T07:20:43.378Z,17.93
2022-10-29T07:23:12.433Z,17.37
2022-10-29T07:25:41.475Z,17.00
2022-10-29T07:28:14.676Z,15.83
2022-10-29T07:30:42.940Z,17.27
2022-10-29T07:33:11.245Z,17.63
2022-10-29T07:35:39.979Z,15.03
2022-10-29T07:38:11.206Z,15.23
2022-10-29T07:40:40.836Z,14.70
2022-10-29T07:43:10.900Z,13.80
2022-10-29T07:45:39.245Z,13.50
2022-10-29T07:48:08.877Z,13.90
2022-10-29T07:50:38.016Z,13.50
2022-10-29T07:53:07.977Z,15.70
2022-10-29T07:55:36.617Z,14.17
2022-10-29T07:58:07.176Z,11.93
2022-10-29T08:00:38.320Z,12.63
2022-10-29T08:03:07.129Z,13.33
2022-10-29T08:05:35.661Z,11.97
2022-10-29T08:08:03.999Z,11.07
2022-10-29T08:10:33.646Z,10.60
2022-10-29T08:13:03.163Z,11.13
2022-10-29T08:15:33.080Z,10.13
2022-10-29T08:18:03.628Z,9.47
2022-10-29T08:20:32.708Z,9.50
2022-10-29T08:23:01.833Z,10.10
2022-10-29T08:25:30.779Z,9.53
2022-10-29T08:28:03.774Z,9.37
2022-10-29T08:30:32.731Z,10.97
2022-10-29T08:33:03.324Z,9.10
2022-10-29T08:35:32.307Z,8.70
2022-10-29T08:38:00.604Z,7.93
2022-10-29T08:40:36.285Z,8.50
2022-10-29T08:43:23.293Z,6.17
2022-10-29T08:45:54.793Z,6.50
2022-10-29T08:48:37.324Z,6.37
2022-10-29T08:51:11.205Z,6.40
2022-10-29T08:53:42.881Z,7.07
2022-10-29T08:56:17.788Z,6.33
2022-10-29T08:58:55.325Z,6.17
2022-10-29T09:01:24.944Z,6.60
2022-10-29T09:03:55.753Z,5.93
2022-10-29T09:06:32.325Z,6.03
2022-10-29T09:09:26.763Z,6.43
2022-10-29T09:12:23.190Z,7.27
2022-10-29T09:15:14.415Z,6.60
2022-10-29T09:17:51.962Z,6.50
2022-10-29T09:20:29.542Z,6.30
2022-10-29T09:23:08.413Z,6.80
2022-10-29T09:25:45.506Z,6.20
2022-10-29T09:28:25.745Z,6.10
2022-10-29T09:31:01.735Z,5.97
2022-10-29T09:33:30.380Z,5.40
2022-10-29T09:36:01.580Z,6.23
2022-10-29T09:38:33.962Z,5.43
2022-10-29T09:41:03.949Z,5.47
2022-10-29T09:43:44.417Z,6.83
2022-10-29T09:46:22.752Z,5.30
2022-10-29T09:48:56.134Z,5.13
2022-10-29T09:51:35.751Z,5.22
2022-10-29T09:54:05.779Z,5.57
2022-10-29T09:56:34.086Z,7.10
2022-10-29T09:59:12.772Z,7.10
2022-10-29T10:01:41.592Z,6.45
2022-10-29T10:04:20.482Z,5.88
2022-10-29T10:07:10.524Z,6.95
2022-10-29T10:09:53.760Z,6.45
2022-10-29T10:12:25.278Z,6.38
2022-10-29T10:15:08.412Z,5.60
2022-10-29T10:17:59.446Z,6.25
2022-10-29T10:20:31.810Z,6.20
2022-10-29T10:23:01.583Z,5.85
2022-10-29T10:25:34.975Z,5.85
2022-10-29T10:28:06.504Z,5.80
2022-10-29T10:30:35.143Z,6.25
2022-10-29T10:35:56.616Z,6.70
2022-10-29T10:38:27.272Z,5.72
2022-10-29T10:40:57.606Z,5.30
2022-10-29T10:43:27.393Z,4.28
2022-10-29T10:45:58.866Z,4.55
2022-10-29T10:48:33.419Z,5.28
2022-10-29T10:51:21.645Z,4.70
2022-10-29T10:53:52.141Z,4.85
2022-10-29T10:56:22.744Z,4.63
2022-10-29T10:58:59.651Z,5.30
2022-10-29T11:01:32.987Z,4.75
2022-10-29T11:04:09.866Z,4.25
2022-10-29T11:06:41.876Z,3.97
2022-10-29T11:09:19.806Z,4.15
2022-10-29T11:11:58.968Z,4.20
2022-10-29T11:14:32.718Z,4.30
2022-10-29T11:17:03.912Z,4.45
2022-10-29T11:19:37.162Z,4.22
2022-10-29T11:22:14.046Z,4.38
2022-10-29T11:24:50.159Z,3.72
2022-10-29T11:27:35.998Z,3.83
2022-10-29T11:30:07.262Z,3.10
2022-10-29T11:32:47.812Z,4.32
2022-10-29T11:35:19.971Z,2.65
2022-10-29T11:37:56.727Z,2.78
2022-10-29T11:40:37.097Z,2.75
2022-10-29T11:43:10.971Z,3.30
2022-10-29T11:45:50.395Z,2.97
2022-10-29T11:48:27.159Z,3.30
2022-10-29T11:51:00.604Z,3.47
2022-10-29T11:53:53.515Z,2.95
2022-10-29T11:56:35.555Z,3.00
2022-10-29T11:59:11.998Z,3.53
2022-10-29T12:01:47.463Z,4.30
2022-10-29T12:04:25.464Z,3.58
2022-10-29T12:07:19.930Z,3.33
2022-10-29T12:10:18.589Z,3.42
2022-10-29T12:12:54.620Z,3.72
2022-10-29T12:15:27.397Z,3.40
2022-10-29T12:18:05.459Z,3.85
2022-10-29T12:20:41.405Z,3.53
2022-10-29T12:23:25.284Z,3.65
2022-10-29T12:26:04.347Z,3.97
2022-10-29T12:28:42.973Z,4.10
2022-10-29T12:31:31.557Z,3.60
2022-10-29T12:34:06.579Z,3.60
2022-10-29T12:36:41.371Z,3.80
2022-10-29T12:39:16.758Z,4.00
2022-10-29T12:41:48.516Z,3.90
2022-10-29T12:44:26.902Z,3.78
2022-10-29T12:47:02.416Z,3.75
2022-10-29T12:49:47.703Z,3.72
2022-10-29T12:52:21.092Z,3.75
2022-10-29T12:54:51.718Z,3.55
2022-10-29T12:57:31.520Z,3.97
2022-10-29T13:00:34.138Z,3.47
2022-10-29T13:03:03.151Z,3.63
2022-10-29T13:05:43.327Z,4.22
2022-10-29T13:08:35.373Z,3.65
2022-10-29T13:11:18.991Z,5.38
2022-10-29T13:14:00.915Z,3.17
2022-10-29T13:16:33.766Z,3.10
2022-10-29T13:19:19.542Z,3.00
2022-10-29T13:22:02.590Z,3.13
2022-10-29T13:24:36.276Z,3.70
2022-10-29T13:27:27.103Z,3.80
2022-10-29T13:30:20.307Z,3.50
2022-10-29T13:32:53.626Z,2.80
2022-10-29T13:35:43.898Z,3.35
2022-10-29T13:39:04.634Z,3.33
2022-10-29T13:41:40.411Z,3.33
2022-10-29T13:44:13.093Z,3.70
2022-10-29T13:46:48.078Z,2.90
2022-10-29T13:49:24.998Z,2.97
2022-10-29T13:51:59.517Z,3.17
2022-10-29T13:54:38.143Z,3.13
2022-10-29T13:57:15.202Z,4.60
2022-10-29T13:59:46.752Z,7.20
2022-10-29T14:02:39.574Z,4.38
2022-10-29T14:05:17.195Z,63.78
2022-10-29T14:07:53.185Z,5.95
2022-10-29T14:10:26.341Z,5.35
2022-10-29T14:12:59.267Z,4.15
2022-10-29T14:15:27.878Z,3.42
2022-10-29T14:17:56.145Z,3.90
2022-10-29T14:20:28.444Z,4.35
2022-10-29T14:22:57.101Z,4.15
2022-10-29T14:25:32.074Z,4.35
2022-10-29T14:28:22.210Z,4.00
2022-10-29T14:31:02.093Z,4.18
2022-10-29T14:33:32.859Z,3.10
2022-10-29T14:36:08.651Z,3.30
2022-10-29T14:38:44.099Z,2.97
2022-10-29T14:41:12.976Z,3.40
2022-10-29T14:43:41.884Z,2.92
2022-10-29T14:46:24.872Z,3.20
2022-10-29T14:48:58.966Z,3.60
2022-10-29T14:51:29.075Z,4.03
2022-10-29T14:54:01.250Z,3.55
2022-10-29T14:56:35.124Z,3.83
2022-10-29T14:59:19.013Z,3.70
2022-10-29T15:01:56.978Z,3.63
2022-10-29T15:04:27.501Z,3.97
2022-10-29T15:07:14.728Z,4.10
2022-10-29T15:09:43.002Z,4.03
2022-10-29T15:12:20.775Z,5.03
2022-10-29T15:14:50.503Z,4.45
2022-10-29T15:17:22.997Z,4.50
2022-10-29T15:19:55.662Z,5.70
2022-10-29T15:22:32.074Z,5.57
2022-10-29T15:25:05.794Z,6.25
2022-10-29T15:27:36.489Z,7.35
2022-10-29T15:30:07.824Z,6.80
2022-10-29T15:32:36.127Z,6.50
2022-10-29T15:35:10.629Z,6.85
2022-10-29T15:37:46.485Z,7.00
2022-10-29T15:40:17.317Z,7.32
2022-10-29T15:42:46.576Z,8.40
2022-10-29T15:45:24.057Z,7.82
2022-10-29T15:47:56.833Z,7.43
2022-10-29T15:50:27.927Z,7.63
2022-10-29T15:53:01.809Z,8.02
2022-10-29T15:55:32.031Z,8.60
2022-10-29T15:58:05.697Z,8.50
2022-10-29T16:00:34.390Z,9.10
2022-10-29T16:03:13.546Z,10.30
2022-10-29T16:05:42.499Z,9.63
2022-10-29T16:08:20.692Z,9.50
2022-10-29T16:10:48.963Z,10.37
2022-10-29T16:13:18.837Z,10.43
2022-10-29T16:15:47.103Z,11.07
2022-10-29T16:18:15.461Z,12.00
2022-10-29T16:20:43.757Z,10.80
2022-10-29T16:23:14.256Z,12.47
2022-10-29T16:25:42.813Z,13.90
2022-10-29T16:28:11.527Z,13.87
2022-10-29T16:33:13.766Z,12.00
2022-10-29T16:35:42.033Z,14.00
2022-10-29T16:38:10.299Z,12.40
2022-10-29T16:40:40.357Z,12.67
2022-10-29T16:43:09.794Z,12.77
2022-10-29T16:45:38.104Z,12.23
2022-10-29T16:48:06.880Z,13.10
2022-10-29T16:50:36.022Z,13.00
2022-10-29T16:53:07.339Z,14.30
2022-10-29T16:55:37.681Z,14.20
2022-10-29T16:58:07.928Z,14.90
2022-10-29T17:00:36.855Z,15.00
2022-10-29T17:03:08.401Z,16.07
2022-10-29T17:05:40.722Z,15.90
2022-10-29T17:08:10.491Z,15.73
2022-10-29T17:10:39.107Z,19.37
2022-10-29T17:13:11.264Z,19.00
2022-10-29T17:15:43.743Z,18.30
2022-10-29T17:18:12.015Z,18.47
2022-10-29T17:20:40.262Z,16.80
2022-10-29T17:23:08.500Z,15.30
2022-10-29T17:25:36.759Z,15.17
2022-10-29T17:28:05.095Z,15.43
2022-10-29T17:30:34.870Z,17.30
2022-10-29T17:33:03.167Z,17.10
2022-10-29T17:35:31.444Z,17.53
2022-10-29T17:37:59.673Z,17.13
2022-10-29T17:40:27.920Z,18.17
2022-10-29T17:42:56.464Z,16.10
2022-10-29T17:45:24.847Z,17.07
2022-10-29T17:47:57.860Z,15.43
2022-10-29T17:50:27.347Z,15.37
2022-10-29T17:52:57.907Z,14.00
2022-10-29T17:55:26.359Z,13.27
2022-10-29T17:57:55.044Z,13.70
2022-10-29T18:00:26.170Z,13.83
2022-10-29T18:02:54.478Z,13.20
2022-10-29T18:05:24.202Z,13.10
2022-10-29T18:07:52.407Z,12.60
2022-10-29T18:10:20.625Z,12.03
2022-10-29T18:12:48.845Z,13.33
2022-10-29T18:15:17.142Z,13.50
2022-10-29T18:17:46.041Z,13.00
2022-10-29T18:20:14.290Z,12.87
2022-10-29T18:22:44.234Z,13.47
2022-10-29T18:25:12.758Z,13.47
2022-10-29T18:27:41.390Z,12.67
2022-10-29T18:30:10.842Z,12.83
2022-10-29T18:32:39.040Z,12.57
2022-10-29T18:35:08.359Z,13.20
2022-10-29T18:37:36.608Z,13.17
2022-10-29T18:40:07.194Z,12.63
2022-10-29T18:42:35.405Z,11.27
2022-10-29T18:45:03.652Z,12.20
2022-10-29T18:47:31.884Z,11.70
2022-10-29T18:50:00.103Z,10.67
2022-10-29T18:52:28.701Z,11.63
2022-10-29T18:54:57.039Z,10.73
2022-10-29T18:57:26.713Z,11.37
2022-10-29T18:59:54.955Z,9.80
2022-10-29T19:02:23.236Z,10.60
2022-10-29T19:04:51.497Z,11.40
2022-10-29T19:07:20.078Z,11.20
2022-10-29T19:09:48.952Z,10.83
2022-10-29T19:12:17.331Z,11.63
2022-10-29T19:14:46.941Z,11.37
2022-10-29T19:17:15.153Z,10.97
2022-10-29T19:19:43.386Z,12.33
2022-10-29T19:22:11.663Z,12.93
2022-10-29T19:24:39.868Z,13.60
2022-10-29T19:27:08.061Z,12.57
2022-10-29T19:29:36.298Z,16.80
2022-10-29T19:32:06.248Z,13.20
2022-10-29T19:34:34.524Z,14.80
2022-10-29T19:37:02.774Z,15.77
2022-10-29T19:39:30.971Z,14.97
2022-10-29T19:41:59.232Z,16.53
2022-10-29T19:44:27.475Z,16.73
2022-10-29T19:46:55.716Z,18.00
2022-10-29T19:49:25.508Z,17.53
2022-10-29T19:51:53.903Z,17.93
2022-10-29T19:54:22.100Z,20.30
2022-10-29T19:56:50.377Z,18.93
2022-10-29T19:59:18.684Z,17.53
2022-10-29T20:01:48.741Z,17.93
2022-10-29T20:04:17.103Z,16.17
2022-10-29T20:06:48.346Z,15.97
2022-10-29T20:09:16.634Z,16.73
2022-10-29T20:11:44.898Z,14.67
2022-10-29T20:14:13.150Z,14.47
2022-10-29T20:16:41.596Z,12.30
2022-10-29T20:19:11.274Z,13.43
2022-10-29T20:21:39.532Z,12.70
2022-10-29T20:24:09.448Z,11.73
2022-10-29T20:26:37.793Z,11.43
2022-10-29T20:29:06.017Z,12.20
2022-10-29T20:31:40.030Z,12.40
2022-10-29T20:34:10.262Z,11.07
2022-10-29T20:36:38.655Z,10.83
2022-10-29T20:39:08.423Z,11.13
2022-10-29T20:41:37.453Z,12.17
2022-10-29T20:44:05.872Z,10.87
2022-10-29T20:46:36.082Z,11.70
2022-10-29T20:49:06.295Z,10.40
2022-10-29T20:51:34.543Z,10.17
2022-10-29T20:54:02.861Z,10.63
2022-10-29T20:56:32.485Z,10.37
2022-10-29T20:59:02.676Z,9.67
2022-10-29T21:01:31.210Z,10.97
2022-10-29T21:03:59.578Z,10.90
2022-10-29T21:06:29.490Z,10.47
2022-10-29T21:08:57.774Z,10.47
2022-10-29T21:11:26.013Z,10.30
2022-10-29T21:13:55.646Z,10.90
2022-10-29T21:16:26.516Z,9.43
2022-10-29T21:18:56.669Z,10.57
2022-10-29T21:21:25.356Z,10.57
2022-10-29T21:23:53.705Z,11.17
2022-10-29T21:26:23.460Z,10.10
2022-10-29T21:28:52.591Z,10.00
2022-10-29T21:31:23.547Z,10.13
2022-10-29T21:33:52.285Z,10.00
2022-10-29T21:36:21.488Z,10.13
2022-10-29T21:38:49.973Z,10.03
2022-10-29T21:41:18.443Z,10.53
2022-10-29T21:43:46.772Z,9.43
2022-10-29T21:46:15.053Z,9.40
2022-10-29T21:48:44.685Z,9.17
2022-10-29T21:51:14.622Z,9.70
2022-10-29T21:53:44.482Z,9.17
2022-10-29T21:56:15.374Z,9.77
2022-10-29T21:58:43.986Z,9.10
2022-10-29T22:01:14.350Z,9.77
2022-10-29T22:03:46.003Z,9.20
2022-10-29T22:06:15.858Z,9.50
2022-10-29T22:08:44.690Z,9.03
2022-10-29T22:11:14.125Z,9.60
2022-10-29T22:13:42.527Z,9.27
2022-10-29T22:16:11.556Z,9.37
2022-10-29T22:18:40.834Z,9.27
2022-10-29T22:21:13.938Z,9.23
2022-10-29T22:23:46.043Z,8.50
2022-10-29T22:26:15.659Z,9.20
2022-10-29T22:28:44.544Z,8.87
2022-10-29T22:31:12.935Z,9.17
2022-10-29T22:33:41.213Z,9.20
2022-10-29T22:36:13.457Z,8.90
2022-10-29T22:38:41.804Z,8.70
2022-10-29T22:41:11.559Z,8.17
2022-10-29T22:43:40.342Z,8.43
2022-10-29T22:46:09.828Z,8.63
2022-10-29T22:48:38.032Z,7.87
2022-10-29T22:51:08.055Z,7.70
2022-10-29T22:53:37.644Z,8.10
2022-10-29T22:56:06.337Z,8.20
2022-10-29T22:58:34.785Z,7.30
2022-10-29T23:01:05.159Z,8.53
2022-10-29T23:03:34.087Z,8.03
2022-10-29T23:06:03.669Z,7.90
2022-10-29T23:08:32.394Z,8.47
2022-10-29T23:11:05.883Z,8.33
2022-10-29T23:13:34.178Z,8.20
2022-10-29T23:16:02.431Z,8.90
2022-10-29T23:18:30.788Z,8.67
2022-10-29T23:21:00.572Z,7.80
2022-10-29T23:23:29.670Z,8.50
2022-10-29T23:26:01.669Z,9.13
2022-10-29T23:28:35.484Z,8.70
2022-10-29T23:31:05.978Z,8.53
2022-10-29T23:33:35.150Z,8.60
2022-10-29T23:36:03.846Z,8.53
2022-10-29T23:38:32.475Z,8.27
2022-10-29T23:41:01.021Z,8.97
2022-10-29T23:43:31.134Z,8.13
2022-10-29T23:45:59.342Z,9.70
2022-10-29T23:48:28.014Z,9.30
2022-10-29T23:50:57.532Z,9.03
2022-10-29T23:53:26.248Z,9.03
2022-10-29T23:55:54.476Z,8.83
2022-10-29T23:58:22.852Z,8.67
